createdAt,value
2022-11-09T00:01:02.279Z,1012.65
2022-11-09T00:10:39.551Z,1012.53
2022-11-09T00:20:17.163Z,1012.54
2022-11-09T00:29:55.281Z,1012.52
2022-11-09T01:18:02.405Z,1012.43
2022-11-09T01:27:39.954Z,1012.38
2022-11-09T01:37:16.926Z,1012.48
2022-11-09T01:46:54.256Z,1012.41
2022-11-09T01:56:32.279Z,1012.37
2022-11-09T02:06:09.550Z,1012.29
2022-11-09T02:15:46.498Z,1012.15
2022-11-09T02:35:01.191Z,1012
2022-11-09T02:44:38.551Z,1012.07
2022-11-09T02:54:15.733Z,1012
2022-11-09T03:03:53.064Z,1012.02
2022-11-09T03:13:30.701Z,1012.08
2022-11-09T03:23:08.293Z,1012.18
2022-11-09T03:32:49.521Z,1012.44
2022-11-09T03:42:23.042Z,1012.48
2022-11-09T03:51:59.447Z,1012.54
2022-11-09T04:01:36.338Z,1012.6
2022-11-09T04:11:13.038Z,1012.61
2022-11-09T04:20:50.066Z,1012.73
2022-11-09T04:30:26.963Z,1012.83
2022-11-09T04:40:04.314Z,1012.86
2022-11-09T04:49:41.911Z,1012.76
2022-11-09T04:59:19.060Z,1012.87
2022-11-09T05:08:55.857Z,1012.82
2022-11-09T05:18:33.297Z,1012.88
2022-11-09T05:28:10.691Z,1012.77
2022-11-09T05:37:47.465Z,1012.69
2022-11-09T05:47:24.421Z,1012.48
2022-11-09T05:57:01.509Z,1012.54
2022-11-09T06:06:38.600Z,1012.54
2022-11-09T06:16:15.505Z,1012.43
2022-11-09T06:35:29.450Z,1012.49
2022-11-09T06:45:06.307Z,1012.78
2022-11-09T06:54:43.157Z,1012.81
2022-11-09T07:04:19.078Z,1012.81
2022-11-09T07:13:57.531Z,1012.8
2022-11-09T07:23:33.115Z,1012.66
2022-11-09T07:33:10.764Z,1012.69
2022-11-09T08:02:02.374Z,1012.73
2022-11-09T08:11:40.222Z,1012.76
2022-11-09T08:21:18.223Z,1012.65
2022-11-09T08:30:55.619Z,1012.82
2022-11-09T08:40:34.183Z,1012.84
2022-11-09T08:50:12.193Z,1012.79
2022-11-09T08:59:49.767Z,1012.7
2022-11-09T09:09:28.483Z,1012.69
2022-11-09T09:19:06.159Z,1012.58
2022-11-09T09:28:44.121Z,1012.49
2022-11-09T09:38:24.696Z,1012.41
2022-11-09T09:48:01.991Z,1012.34
2022-11-09T09:57:41.827Z,1012.14
2022-11-09T10:16:52.195Z,1011.98
2022-11-09T10:36:08.422Z,1012.41
2022-11-09T10:45:44.761Z,1012.42
2022-11-09T11:05:00.972Z,1012.2
2022-11-09T11:14:37.900Z,1012.25
2022-11-09T11:24:15.576Z,1012.46
2022-11-09T11:33:52.917Z,1012.53
2022-11-09T11:43:31.996Z,1012.4
2022-11-09T11:53:10.610Z,1012.4
2022-11-09T12:02:48.645Z,1012.42
2022-11-09T12:12:26.226Z,1012.17
2022-11-09T12:22:03.195Z,1012.13
2022-11-09T12:31:39.850Z,1011.99
2022-11-09T12:41:26.108Z,1011.86
2022-11-09T12:51:01.040Z,1012.08
2022-11-09T13:00:34.567Z,1012.35
2022-11-09T13:10:08.500Z,1012.41
2022-11-09T13:19:40.564Z,1012.62
2022-11-09T13:29:14.504Z,1012.61
2022-11-09T13:38:49.815Z,1012.51
2022-11-09T13:48:27.112Z,1012.73
2022-11-09T13:58:03.727Z,1012.95
2022-11-09T14:07:39.727Z,1013.04
2022-11-09T14:17:17.331Z,1013.07
2022-11-09T14:26:55.420Z,1013.04
2022-11-09T14:36:31.445Z,1013.16
2022-11-09T14:46:08.414Z,1013.2
2022-11-09T14:55:45.483Z,1013.21
2022-11-09T15:05:22.583Z,1013.15
2022-11-09T15:14:59.977Z,1013.14
2022-11-09T15:24:36.445Z,1013.28
2022-11-09T15:34:13.396Z,1013.37
2022-11-09T15:53:27.515Z,1013.32
2022-11-09T16:03:04.155Z,1013.31
2022-11-09T16:12:45.260Z,1013.27
2022-11-09T16:22:16.731Z,1013.47
2022-11-09T16:31:53.574Z,1013.61
2022-11-09T16:41:30.301Z,1013.8
2022-11-09T16:51:06.772Z,1013.84
2022-11-09T17:01:04.264Z,1014.06
2022-11-09T17:19:57.222Z,1014.24
2022-11-09T17:29:34.114Z,1014.32
2022-11-09T17:39:10.555Z,1014.37
2022-11-09T17:48:47.573Z,1014.48
2022-11-09T17:58:24.749Z,1014.52
2022-11-09T18:08:02.087Z,1014.63
2022-11-09T18:17:39.799Z,1014.75
2022-11-09T18:27:17.450Z,1014.73
2022-11-09T18:36:55.695Z,1014.79
2022-11-09T18:46:32.086Z,1014.84
2022-11-09T18:56:08.284Z,1014.88
2022-11-09T19:05:45.859Z,1014.96
2022-11-09T19:15:23.299Z,1014.95
2022-11-09T19:25:00.631Z,1014.98
2022-11-09T19:34:37.828Z,1015.22
2022-11-09T19:44:15.177Z,1015.34
2022-11-09T19:53:52.524Z,1015.4
2022-11-09T20:03:29.613Z,1015.53
2022-11-09T20:13:06.674Z,1015.54
2022-11-09T20:22:43.595Z,1015.72
2022-11-09T20:32:21.624Z,1015.89
2022-11-09T20:41:57.216Z,1016
2022-11-09T20:51:34.243Z,1016.02
2022-11-09T21:39:38.767Z,1016.75
2022-11-09T21:49:15.913Z,1016.76
2022-11-09T21:58:52.709Z,1016.8
2022-11-09T22:08:29.580Z,1017.03
2022-11-09T22:18:06.397Z,1017.19
2022-11-09T22:37:20.819Z,1017.42
2022-11-09T22:46:58.285Z,1017.61
2022-11-09T22:56:35.031Z,1017.7
2022-11-09T23:06:11.976Z,1017.96
2022-11-09T23:15:48.658Z,1018.06
2022-11-09T23:25:25.738Z,1018.07
2022-11-09T23:35:02.861Z,1018.17
2022-11-09T23:44:39.708Z,1018.43
2022-11-09T23:54:16.327Z,1018.56
